createdAt,value
2023-03-23T15:59:42.151Z,31.35
2023-03-23T16:02:21.165Z,31.60
2023-03-23T16:04:50.298Z,31.17
2023-03-23T16:07:21.400Z,31.60
2023-03-23T16:09:49.274Z,30.95
2023-03-23T16:12:17.843Z,30.83
2023-03-23T16:14:45.380Z,30.96
2023-03-23T16:17:17.312Z,31.61
2023-03-23T16:19:44.713Z,32.29
2023-03-23T16:22:12.280Z,31.86
2023-03-23T16:24:39.947Z,32.38
2023-03-23T16:27:10.324Z,31.77
2023-03-23T16:29:54.822Z,32.07
2023-03-23T16:32:25.463Z,31.59
2023-03-23T16:34:52.939Z,32.41
2023-03-23T16:37:20.699Z,31.02
2023-03-23T16:39:48.391Z,30.54
2023-03-23T16:42:16.037Z,30.63
2023-03-23T16:44:43.461Z,31.74
2023-03-23T16:47:11.152Z,31.79
2023-03-23T16:49:38.542Z,31.61
2023-03-23T16:52:06.010Z,31.32
2023-03-23T16:54:33.656Z,32.13
2023-03-23T16:57:01.209Z,31.26
2023-03-23T16:59:29.063Z,30.88
2023-03-23T17:02:00.590Z,30.85
2023-03-23T17:04:28.047Z,32.42
2023-03-23T17:06:55.487Z,31.85
2023-03-23T17:09:23.467Z,31.42
2023-03-23T17:11:51.316Z,33.18
2023-03-23T17:14:18.988Z,32.92
2023-03-23T17:16:46.824Z,32.52
2023-03-23T17:19:14.382Z,31.66
2023-03-23T17:21:42.082Z,31.93
2023-03-23T17:24:10.140Z,31.79
2023-03-23T17:26:37.546Z,31.15
2023-03-23T17:29:05.270Z,31.27
2023-03-23T17:31:33.263Z,31.61
2023-03-23T17:34:00.901Z,32.99
2023-03-23T17:36:28.655Z,31.65
2023-03-23T17:38:56.362Z,31.89
2023-03-23T17:41:23.948Z,32.33
2023-03-23T17:43:51.382Z,32.08
2023-03-23T17:46:19.373Z,31.85
2023-03-23T17:48:46.830Z,31.78
2023-03-23T17:51:14.447Z,31.68
2023-03-23T17:53:42.196Z,32.21
2023-03-23T17:56:09.949Z,32.55
2023-03-23T17:58:37.718Z,32.96
2023-03-23T18:01:05.984Z,33.94
2023-03-23T18:03:33.952Z,34.69
2023-03-23T18:06:04.538Z,33.82
2023-03-23T18:08:33.000Z,33.69
2023-03-23T18:11:01.555Z,33.89
2023-03-23T18:13:32.382Z,34.12
2023-03-23T18:16:00.438Z,34.22
2023-03-23T18:18:28.117Z,33.85
2023-03-23T18:21:04.502Z,34.06
2023-03-23T18:23:39.046Z,34.22
2023-03-23T18:26:12.671Z,34.20
2023-03-23T18:28:40.849Z,34.19
2023-03-23T18:31:11.669Z,33.82
2023-03-23T18:33:42.418Z,34.07
2023-03-23T18:36:10.610Z,34.92
2023-03-23T18:38:39.199Z,34.28
2023-03-23T18:41:08.329Z,34.66
2023-03-23T18:43:36.338Z,34.74
2023-03-23T18:46:04.683Z,34.98
2023-03-23T18:48:32.453Z,35.35
2023-03-23T18:51:01.068Z,35.04
2023-03-23T18:53:29.096Z,35.20
2023-03-23T18:56:15.843Z,34.61
2023-03-23T18:58:44.207Z,35.17
2023-03-23T19:01:14.989Z,35.30
2023-03-23T19:03:43.509Z,34.86
2023-03-23T19:06:20.556Z,34.86
2023-03-23T19:08:48.969Z,35.15
2023-03-23T19:11:17.092Z,34.69
2023-03-23T19:13:58.376Z,35.35
2023-03-23T19:16:35.701Z,35.34
2023-03-23T19:19:05.006Z,34.84
2023-03-23T19:21:32.878Z,35.10
2023-03-23T19:24:01.538Z,35.12
2023-03-23T19:26:37.594Z,36.51
2023-03-23T19:31:38.500Z,37.65
2023-03-23T19:34:06.827Z,36.97
2023-03-23T19:36:35.610Z,36.14
2023-03-23T19:39:04.832Z,36.22
2023-03-23T19:41:33.828Z,36.28
2023-03-23T19:44:04.168Z,36.55
2023-03-23T19:46:32.636Z,35.83
2023-03-23T19:49:00.956Z,36.53
2023-03-23T19:51:28.708Z,36.52
2023-03-23T19:53:57.426Z,35.56
2023-03-23T19:56:25.476Z,35.43
2023-03-23T19:58:53.087Z,35.66
2023-03-23T20:01:21.264Z,35.50
2023-03-23T20:03:49.341Z,35.49
2023-03-23T20:06:16.780Z,35.49
2023-03-23T20:08:47.638Z,35.48
2023-03-23T20:11:17.733Z,35.64
2023-03-23T20:13:47.068Z,36.07
2023-03-23T20:16:16.700Z,36.35
2023-03-23T20:21:20.004Z,36.45
2023-03-23T20:23:49.592Z,36.43
2023-03-23T20:26:27.271Z,36.65
2023-03-23T20:28:55.770Z,36.69
2023-03-23T20:31:26.724Z,38.65
2023-03-23T20:34:01.997Z,38.34
2023-03-23T20:36:35.788Z,38.60
2023-03-23T20:39:06.352Z,38.02
2023-03-23T20:41:36.208Z,37.92
2023-03-23T20:44:09.168Z,38.71
2023-03-23T20:46:37.217Z,39.68
2023-03-23T20:49:06.097Z,38.62
2023-03-23T20:51:34.209Z,38.17
2023-03-23T20:54:03.858Z,38.17
2023-03-23T20:56:31.665Z,37.35
2023-03-23T20:58:59.563Z,36.94
2023-03-23T21:01:27.400Z,36.97
2023-03-23T21:03:57.030Z,36.64
2023-03-23T21:06:28.414Z,36.65
2023-03-23T21:08:57.438Z,36.50
2023-03-23T21:11:26.489Z,36.68
2023-03-23T21:13:54.383Z,36.94
2023-03-23T21:16:24.084Z,36.59
2023-03-23T21:18:51.825Z,36.43
2023-03-23T21:21:19.585Z,36.82
2023-03-23T21:23:52.119Z,37.07
2023-03-23T21:26:23.098Z,37.32
2023-03-23T21:28:53.955Z,38.30
2023-03-23T21:31:26.857Z,37.29
2023-03-23T21:33:54.580Z,37.59
2023-03-23T21:36:22.084Z,37.35
2023-03-23T21:38:50.223Z,37.19
2023-03-23T21:41:17.931Z,37.18
2023-03-23T21:43:45.860Z,36.95
2023-03-23T21:46:18.039Z,37.08
2023-03-23T21:48:50.944Z,37.23
2023-03-23T21:51:22.152Z,37.38
2023-03-23T21:53:50.244Z,37.49
2023-03-23T21:56:17.649Z,37.51
2023-03-23T21:58:45.042Z,37.75
2023-03-23T22:01:13.195Z,37.80
2023-03-23T22:03:41.109Z,37.87
2023-03-23T22:06:18.316Z,38.12
2023-03-23T22:08:46.750Z,38.52
2023-03-23T22:11:18.815Z,38.39
2023-03-23T22:13:46.860Z,38.34
2023-03-23T22:16:17.783Z,38.37
2023-03-23T22:18:46.496Z,38.51
2023-03-23T22:21:15.448Z,38.63
2023-03-23T22:23:43.961Z,38.45
2023-03-23T22:26:13.190Z,38.35
2023-03-23T22:28:41.301Z,38.56
2023-03-23T22:31:13.528Z,38.64
2023-03-23T22:33:41.605Z,38.71
2023-03-23T22:36:09.561Z,39.12
2023-03-23T22:38:39.074Z,39.11
2023-03-23T22:41:08.068Z,39.45
2023-03-23T22:43:36.504Z,39.22
2023-03-23T22:46:05.148Z,39.42
2023-03-23T22:48:32.953Z,38.91
2023-03-23T22:51:00.634Z,38.77
2023-03-23T22:53:28.143Z,39.56
2023-03-23T22:55:57.233Z,39.32
2023-03-23T22:58:26.296Z,39.80
2023-03-23T23:01:02.740Z,40.01
2023-03-23T23:03:31.518Z,40.51
2023-03-23T23:05:59.354Z,40.66
2023-03-23T23:08:28.694Z,40.83
2023-03-23T23:10:57.773Z,40.79
2023-03-23T23:13:26.464Z,40.72
2023-03-23T23:15:56.576Z,40.72
2023-03-23T23:18:25.998Z,40.78
2023-03-23T23:20:58.787Z,41.08
2023-03-23T23:23:28.063Z,40.98
2023-03-23T23:25:56.349Z,41.02
2023-03-23T23:28:24.309Z,42.84
2023-03-23T23:30:52.292Z,42.09
2023-03-23T23:33:20.081Z,42.95
2023-03-23T23:35:47.951Z,43.45
2023-03-23T23:38:16.660Z,44.27
2023-03-23T23:40:45.338Z,43.56
2023-03-23T23:43:14.566Z,43.52
2023-03-23T23:45:42.904Z,44.01
2023-03-23T23:48:10.774Z,44.01
2023-03-23T23:50:38.423Z,43.85
2023-03-23T23:53:06.302Z,43.40
2023-03-23T23:55:33.755Z,43.40
2023-03-23T23:58:01.189Z,43.47
